createdAt,value
2019-01-21T00:00:47.086Z,34.65
2019-01-21T00:03:16.088Z,34.98
2019-01-21T00:05:45.048Z,39.50
2019-01-21T00:08:13.996Z,34.95
2019-01-21T00:10:42.979Z,35.92
2019-01-21T00:13:12.764Z,33.95
2019-01-21T00:15:41.807Z,31.55
2019-01-21T00:18:10.831Z,33.80
2019-01-21T00:20:39.824Z,33.60
2019-01-21T00:23:08.604Z,36.28
2019-01-21T00:25:37.656Z,34.90
2019-01-21T00:28:06.740Z,32.40
2019-01-21T00:30:35.736Z,34.45
2019-01-21T00:33:05.062Z,30.30
2019-01-21T00:35:34.076Z,32.15
2019-01-21T00:38:03.354Z,31.95
2019-01-21T00:40:32.368Z,29.32
2019-01-21T00:43:01.344Z,29.48
2019-01-21T00:45:30.352Z,33.10
2019-01-21T00:47:59.344Z,33.50
2019-01-21T00:50:28.236Z,34.65
2019-01-21T00:52:57.120Z,33.55
2019-01-21T00:55:26.080Z,31.87
2019-01-21T00:57:54.921Z,33.90
2019-01-21T01:00:25.680Z,29.45
2019-01-21T01:02:54.740Z,30.68
2019-01-21T01:05:24.648Z,28.65
2019-01-21T01:07:53.896Z,30.82
2019-01-21T01:10:22.881Z,31.42
2019-01-21T01:12:51.788Z,29.72
2019-01-21T01:15:20.660Z,32.65
2019-01-21T01:17:49.468Z,31.75
2019-01-21T01:20:20.520Z,32.05
2019-01-21T01:22:50.064Z,31.35
2019-01-21T01:25:19.037Z,28.98
2019-01-21T01:27:48.205Z,34.33
2019-01-21T01:30:17.900Z,27.85
2019-01-21T01:32:46.875Z,30.68
2019-01-21T01:35:16.778Z,33.23
2019-01-21T01:37:46.128Z,30.43
2019-01-21T01:40:17.157Z,32.70
2019-01-21T01:42:46.206Z,30.70
2019-01-21T01:45:19.980Z,32.23
2019-01-21T01:47:51.376Z,29.37
2019-01-21T01:50:20.372Z,32.10
2019-01-21T01:52:49.648Z,29.63
2019-01-21T01:55:18.897Z,31.42
2019-01-21T01:57:47.884Z,35.55
2019-01-21T02:00:17.526Z,31.23
2019-01-21T02:02:46.372Z,30.88
2019-01-21T02:05:15.244Z,29.10
2019-01-21T02:07:44.286Z,29.30
2019-01-21T02:10:13.853Z,29.45
2019-01-21T02:12:42.816Z,27.98
2019-01-21T02:15:12.396Z,28.25
2019-01-21T02:17:41.672Z,30.92
2019-01-21T02:20:12.020Z,31.15
2019-01-21T02:22:43.849Z,30.10
2019-01-21T02:25:13.748Z,29.75
2019-01-21T02:28:06.542Z,33.63
2019-01-21T02:31:02.662Z,28.62
2019-01-21T02:34:10.884Z,29.07
2019-01-21T02:37:05.009Z,31.82
2019-01-21T02:39:58.579Z,34.03
2019-01-21T02:42:40.168Z,29.55
2019-01-21T02:45:29.149Z,31.48
2019-01-21T02:48:09.873Z,31.48
2019-01-21T02:51:21.987Z,32.93
2019-01-21T02:54:14.418Z,35.10
2019-01-21T02:57:11.404Z,31.65
2019-01-21T03:00:07.872Z,28.73
2019-01-21T03:03:12.674Z,28.35
2019-01-21T03:06:10.321Z,30.85
2019-01-21T03:09:10.113Z,29.67
2019-01-21T03:12:17.984Z,33.38
2019-01-21T03:15:28.270Z,35.48
2019-01-21T03:18:32.232Z,31.45
2019-01-21T03:21:29.450Z,30.20
2019-01-21T03:24:45.620Z,33.75
2019-01-21T03:27:44.276Z,32.67
2019-01-21T03:30:48.685Z,29.90
2019-01-21T03:34:05.438Z,28.47
2019-01-21T03:36:48.596Z,32.93
2019-01-21T03:39:58.609Z,32.80
2019-01-21T03:42:54.500Z,34.67
2019-01-21T03:45:55.176Z,31.12
2019-01-21T03:49:01.245Z,31.90
2019-01-21T03:52:07.378Z,34.27
2019-01-21T03:54:41.036Z,32.25
2019-01-21T03:57:35.802Z,31.10
2019-01-21T04:00:43.212Z,28.55
2019-01-21T04:03:55.037Z,27.75
2019-01-21T04:06:29.101Z,29.52
2019-01-21T04:09:46.944Z,29.02
2019-01-21T04:13:02.609Z,31.55
2019-01-21T04:16:09.729Z,30.72
2019-01-21T04:18:53.457Z,33.08
2019-01-21T04:21:50.916Z,30.05
2019-01-21T04:25:16.017Z,26.87
2019-01-21T04:28:03.624Z,27.15
2019-01-21T04:31:05.066Z,29.87
2019-01-21T04:34:03.787Z,28.70
2019-01-21T04:37:09.648Z,30.17
2019-01-21T04:40:14.182Z,25.65
2019-01-21T04:43:12.909Z,28.10
2019-01-21T04:46:25.084Z,29.45
2019-01-21T04:49:47.128Z,30.15
2019-01-21T04:52:49.734Z,26.45
2019-01-21T04:55:52.026Z,28.87
2019-01-21T04:58:40.943Z,27.17
2019-01-21T05:01:46.805Z,29.32
2019-01-21T05:04:53.737Z,30.30
2019-01-21T05:08:05.197Z,28.40
2019-01-21T05:11:03.719Z,27.17
2019-01-21T05:13:46.928Z,25.60
2019-01-21T05:16:59.226Z,27.93
2019-01-21T05:20:11.036Z,33.28
2019-01-21T05:23:28.060Z,29.05
2019-01-21T05:26:04.850Z,29.05
2019-01-21T05:29:16.800Z,30.10
2019-01-21T05:32:20.076Z,28.10
2019-01-21T05:35:54.551Z,29.07
2019-01-21T05:39:13.961Z,33.60
2019-01-21T05:42:19.895Z,29.02
2019-01-21T05:45:19.372Z,28.65
2019-01-21T05:48:20.492Z,29.05
2019-01-21T05:51:25.853Z,25.35
2019-01-21T05:54:37.720Z,32.45
2019-01-21T05:57:45.780Z,25.10
2019-01-21T06:00:41.987Z,29.15
2019-01-21T06:03:48.584Z,28.75
2019-01-21T06:06:44.090Z,25.20
2019-01-21T06:09:40.356Z,28.38
2019-01-21T06:12:21.749Z,28.02
2019-01-21T06:15:09.648Z,30.50
2019-01-21T06:18:10.983Z,27.30
2019-01-21T06:21:22.708Z,26.77
2019-01-21T06:24:02.350Z,29.23
2019-01-21T06:27:25.408Z,34.75
2019-01-21T06:30:09.663Z,30.30
2019-01-21T06:32:56.776Z,29.70
2019-01-21T06:36:06.320Z,30.12
2019-01-21T06:39:05.440Z,29.02
2019-01-21T06:42:21.673Z,26.10
2019-01-21T06:45:22.456Z,31.00
2019-01-21T06:48:21.537Z,31.37
2019-01-21T06:51:04.973Z,31.05
2019-01-21T06:54:04.188Z,31.93
2019-01-21T06:56:59.204Z,30.35
2019-01-21T07:00:05.532Z,29.10
2019-01-21T07:03:14.468Z,30.52
2019-01-21T07:06:15.840Z,31.17
2019-01-21T07:09:26.288Z,30.57
2019-01-21T07:12:32.260Z,27.20
2019-01-21T07:15:24.612Z,29.75
2019-01-21T07:18:28.611Z,31.35
2019-01-21T07:21:28.165Z,31.95
2019-01-21T07:24:21.052Z,29.70
2019-01-21T07:27:19.852Z,28.00
2019-01-21T07:30:02.464Z,28.95
2019-01-21T07:33:09.329Z,30.57
2019-01-21T07:36:16.508Z,26.37
2019-01-21T07:39:09.726Z,29.63
2019-01-21T07:42:14.340Z,27.73
2019-01-21T07:45:36.430Z,28.40
2019-01-21T07:48:41.419Z,25.97
2019-01-21T07:51:45.418Z,29.75
2019-01-21T07:54:58.716Z,26.55
2019-01-21T07:58:03.361Z,29.42
2019-01-21T08:01:03.944Z,27.00
2019-01-21T08:04:19.213Z,30.95
2019-01-21T08:07:29.143Z,31.33
2019-01-21T08:10:27.732Z,27.98
2019-01-21T08:13:20.983Z,29.52
2019-01-21T08:16:23.020Z,29.98
2019-01-21T08:19:26.348Z,31.35
2019-01-21T08:22:23.120Z,28.15
2019-01-21T08:25:21.444Z,30.70
2019-01-21T08:28:06.965Z,34.05
2019-01-21T08:31:14.864Z,29.63
2019-01-21T08:34:07.872Z,32.80
2019-01-21T08:37:34.127Z,30.48
2019-01-21T08:40:32.348Z,30.48
2019-01-21T08:43:25.575Z,30.02
2019-01-21T08:46:33.024Z,29.30
2019-01-21T08:49:37.904Z,30.23
2019-01-21T08:52:49.512Z,30.12
2019-01-21T08:55:42.535Z,26.37
2019-01-21T08:59:02.072Z,25.27
2019-01-21T09:02:03.934Z,27.62
2019-01-21T09:05:17.233Z,29.00
2019-01-21T09:08:26.365Z,28.67
2019-01-21T09:11:32.308Z,26.35
2019-01-21T09:14:39.895Z,29.25
2019-01-21T09:17:29.675Z,27.98
2019-01-21T09:20:43.310Z,30.12
2019-01-21T09:23:42.666Z,29.20
2019-01-21T09:26:50.636Z,27.00
2019-01-21T09:29:51.708Z,28.65
2019-01-21T09:32:41.760Z,27.62
2019-01-21T09:35:48.629Z,27.22
2019-01-21T09:38:53.280Z,27.45
2019-01-21T09:41:53.422Z,26.62
2019-01-21T09:44:44.028Z,27.85
2019-01-21T09:47:11.670Z,35.17
2019-01-21T09:49:43.719Z,30.37
2019-01-21T09:52:16.193Z,25.75
2019-01-21T09:54:45.245Z,36.48
2019-01-21T09:57:25.322Z,41.13
2019-01-21T09:59:59.728Z,35.80
2019-01-21T10:02:48.420Z,28.65
2019-01-21T10:05:18.511Z,28.27
2019-01-21T10:08:27.926Z,25.00
2019-01-21T10:11:27.258Z,27.32
2019-01-21T10:14:43.216Z,27.80
2019-01-21T10:17:33.540Z,25.68
2019-01-21T10:20:29.320Z,29.30
2019-01-21T10:23:34.413Z,25.52
2019-01-21T10:26:40.264Z,29.20
2019-01-21T10:29:30.160Z,24.98
2019-01-21T10:32:55.245Z,27.73
2019-01-21T10:36:01.660Z,26.90
2019-01-21T10:39:01.850Z,26.57
2019-01-21T10:41:44.890Z,23.92
2019-01-21T10:44:23.492Z,23.25
2019-01-21T10:47:41.884Z,27.15
2019-01-21T10:51:01.032Z,25.88
2019-01-21T10:53:59.657Z,26.75
2019-01-21T10:57:01.080Z,27.90
2019-01-21T11:00:21.736Z,26.68
2019-01-21T11:03:13.832Z,29.20
2019-01-21T11:06:28.899Z,26.70
2019-01-21T11:09:31.479Z,24.85
2019-01-21T11:12:30.663Z,25.55
2019-01-21T11:15:21.264Z,26.00
2019-01-21T11:18:30.168Z,26.77
2019-01-21T11:21:28.752Z,25.00
2019-01-21T11:24:37.716Z,25.77
2019-01-21T11:27:58.352Z,26.93
2019-01-21T11:30:48.488Z,26.07
2019-01-21T11:33:58.607Z,24.25
2019-01-21T11:37:26.587Z,25.65
2019-01-21T11:40:16.694Z,25.75
2019-01-21T11:43:12.110Z,25.02
2019-01-21T11:46:17.468Z,23.32
2019-01-21T11:49:11.452Z,24.35
2019-01-21T11:52:23.228Z,24.30
2019-01-21T11:55:30.713Z,25.08
2019-01-21T11:58:40.205Z,23.38
2019-01-21T12:01:59.432Z,22.77
2019-01-21T12:04:41.314Z,23.12
2019-01-21T12:07:33.244Z,21.97
2019-01-21T12:10:38.596Z,21.85
2019-01-21T12:13:30.753Z,21.60
2019-01-21T12:16:28.224Z,18.82
2019-01-21T12:19:28.439Z,20.48
2019-01-21T12:22:07.008Z,21.52
2019-01-21T12:25:26.122Z,20.05
2019-01-21T12:28:19.048Z,20.10
2019-01-21T12:31:41.367Z,21.45
2019-01-21T12:34:27.516Z,21.82
2019-01-21T12:37:01.996Z,20.32
2019-01-21T12:40:06.448Z,20.75
2019-01-21T12:43:05.967Z,21.20
2019-01-21T12:46:11.750Z,22.07
2019-01-21T12:49:11.840Z,20.33
2019-01-21T12:52:16.592Z,19.73
2019-01-21T12:55:02.632Z,22.58
2019-01-21T12:58:13.021Z,21.00
2019-01-21T13:01:21.760Z,21.23
2019-01-21T13:04:28.428Z,21.85
2019-01-21T13:07:23.624Z,19.42
2019-01-21T13:10:16.476Z,21.77
2019-01-21T13:13:19.163Z,20.75
2019-01-21T13:16:32.256Z,21.20
2019-01-21T13:19:37.688Z,22.53
2019-01-21T13:22:32.092Z,22.73
2019-01-21T13:25:43.713Z,21.05
2019-01-21T13:28:42.175Z,19.60
2019-01-21T13:31:48.335Z,20.23
2019-01-21T13:34:50.512Z,21.17
2019-01-21T13:38:18.858Z,19.20
2019-01-21T13:41:28.253Z,21.23
2019-01-21T13:44:35.116Z,17.73
2019-01-21T13:48:03.480Z,19.47
2019-01-21T13:51:21.288Z,17.80
2019-01-21T13:54:29.560Z,17.60
2019-01-21T13:57:24.928Z,18.60
2019-01-21T14:00:20.959Z,18.67
2019-01-21T14:03:33.884Z,20.90
2019-01-21T14:06:36.696Z,20.57
2019-01-21T14:09:42.660Z,20.73
2019-01-21T14:12:20.644Z,20.83
2019-01-21T14:15:19.576Z,20.37
2019-01-21T14:18:40.913Z,24.60
2019-01-21T14:21:20.088Z,21.43
2019-01-21T14:24:47.016Z,23.00
2019-01-21T14:27:39.365Z,22.67
2019-01-21T14:30:39.212Z,23.93
2019-01-21T14:33:25.940Z,21.80
2019-01-21T14:36:34.621Z,24.70
2019-01-21T14:39:45.852Z,24.20
2019-01-21T14:43:08.599Z,21.80
2019-01-21T14:46:27.001Z,23.62
2019-01-21T14:49:22.740Z,23.80
2019-01-21T14:52:44.016Z,23.60
2019-01-21T14:55:45.434Z,21.85
2019-01-21T14:59:07.529Z,25.23
2019-01-21T15:02:12.068Z,23.45
2019-01-21T15:05:21.450Z,25.32
2019-01-21T15:08:06.099Z,25.17
2019-01-21T15:10:49.915Z,23.85
2019-01-21T15:13:28.592Z,26.93
2019-01-21T15:16:19.632Z,23.95
2019-01-21T15:19:06.348Z,24.00
2019-01-21T15:22:12.632Z,24.70
2019-01-21T15:25:09.539Z,24.70
2019-01-21T15:28:07.494Z,25.50
2019-01-21T15:31:14.025Z,25.00
2019-01-21T15:34:20.219Z,23.67
2019-01-21T15:37:26.818Z,26.80
2019-01-21T15:40:45.421Z,25.37
2019-01-21T15:43:28.496Z,26.37
2019-01-21T15:46:47.749Z,26.40
2019-01-21T15:49:57.702Z,23.98
2019-01-21T15:52:46.468Z,26.55
2019-01-21T15:55:45.471Z,32.48
2019-01-21T15:58:35.367Z,25.08
2019-01-21T16:02:07.080Z,27.65
2019-01-21T16:05:12.004Z,50.48
2019-01-21T16:07:58.233Z,39.98
2019-01-21T16:10:55.375Z,34.05
2019-01-21T16:13:50.096Z,30.80
2019-01-21T16:16:51.305Z,27.98
2019-01-21T16:19:29.789Z,28.38
2019-01-21T16:22:33.084Z,28.57
2019-01-21T16:25:24.340Z,30.80
2019-01-21T16:28:17.888Z,29.60
2019-01-21T16:30:57.533Z,31.68
2019-01-21T16:34:02.809Z,31.93
2019-01-21T16:37:04.437Z,34.00
2019-01-21T16:40:26.597Z,35.40
2019-01-21T16:42:55.677Z,32.10
2019-01-21T16:45:24.612Z,34.10
2019-01-21T16:47:53.509Z,34.80
2019-01-21T16:50:22.516Z,35.85
2019-01-21T16:52:51.585Z,35.10
2019-01-21T16:55:20.593Z,34.83
2019-01-21T16:57:49.964Z,40.28
2019-01-21T17:00:19.012Z,42.50
2019-01-21T17:02:48.068Z,37.75
2019-01-21T17:05:17.932Z,38.98
2019-01-21T17:07:47.465Z,38.45
2019-01-21T17:10:16.429Z,39.18
2019-01-21T17:12:45.408Z,40.38
2019-01-21T17:15:15.831Z,51.92
2019-01-21T17:17:45.664Z,43.35
2019-01-21T17:20:19.709Z,43.58
2019-01-21T17:22:48.747Z,44.50
2019-01-21T17:25:18.257Z,38.90
2019-01-21T17:27:47.275Z,42.53
2019-01-21T17:30:16.525Z,39.45
2019-01-21T17:32:45.732Z,46.23
2019-01-21T17:35:14.795Z,37.78
2019-01-21T17:37:43.724Z,43.68
2019-01-21T17:40:14.627Z,42.95
2019-01-21T17:42:43.590Z,42.73
2019-01-21T17:45:15.568Z,43.33
2019-01-21T17:47:44.537Z,44.77
2019-01-21T17:50:14.647Z,39.65
2019-01-21T17:52:43.972Z,75.80
2019-01-21T17:55:13.516Z,84.25
2019-01-21T17:57:42.519Z,66.05
2019-01-21T18:00:16.279Z,59.90
2019-01-21T18:02:45.286Z,58.87
2019-01-21T18:05:16.443Z,51.30
2019-01-21T18:07:45.520Z,44.18
2019-01-21T18:10:15.653Z,45.52
2019-01-21T18:12:44.640Z,57.33
2019-01-21T18:15:14.412Z,48.20
2019-01-21T18:17:43.675Z,50.65
2019-01-21T18:20:16.369Z,51.85
2019-01-21T18:22:45.375Z,48.13
2019-01-21T18:25:14.636Z,45.30
2019-01-21T18:27:43.563Z,48.68
2019-01-21T18:30:18.451Z,45.45
2019-01-21T18:32:47.805Z,48.73
2019-01-21T18:35:16.832Z,48.45
2019-01-21T18:37:45.989Z,49.63
2019-01-21T18:40:17.130Z,48.33
2019-01-21T18:42:46.706Z,51.50
2019-01-21T18:45:19.613Z,49.33
2019-01-21T18:47:50.020Z,48.58
2019-01-21T18:50:19.248Z,39.48
2019-01-21T18:52:48.457Z,37.88
2019-01-21T18:55:17.351Z,42.00
2019-01-21T18:57:46.397Z,39.92
2019-01-21T19:00:18.546Z,42.65
2019-01-21T19:02:47.548Z,43.35
2019-01-21T19:05:16.642Z,43.63
2019-01-21T19:07:45.688Z,41.65
2019-01-21T19:10:15.045Z,42.77
2019-01-21T19:12:43.963Z,44.48
2019-01-21T19:15:21.649Z,43.38
2019-01-21T19:17:50.660Z,46.53
2019-01-21T19:20:20.024Z,39.03
2019-01-21T19:22:50.004Z,44.18
2019-01-21T19:25:18.933Z,39.30
2019-01-21T19:27:48.068Z,45.50
2019-01-21T19:30:19.776Z,40.78
2019-01-21T19:32:49.120Z,42.70
2019-01-21T19:35:20.796Z,43.90
2019-01-21T19:37:49.652Z,49.40
2019-01-21T19:40:20.471Z,48.78
2019-01-21T19:42:49.625Z,48.65
2019-01-21T19:45:18.920Z,45.23
2019-01-21T19:47:48.268Z,50.28
2019-01-21T19:50:18.948Z,50.50
2019-01-21T19:52:48.384Z,48.35
2019-01-21T19:55:53.240Z,48.45
2019-01-21T19:58:22.389Z,51.18
2019-01-21T20:00:51.363Z,56.53
2019-01-21T20:03:20.462Z,50.05
2019-01-21T20:05:49.376Z,52.67
2019-01-21T20:08:18.579Z,49.63
2019-01-21T20:10:47.436Z,51.55
2019-01-21T20:13:16.423Z,52.48
2019-01-21T20:15:45.447Z,40.52
2019-01-21T20:18:14.374Z,43.92
2019-01-21T20:20:43.368Z,43.65
2019-01-21T20:23:12.595Z,43.98
2019-01-21T20:25:41.592Z,42.10
2019-01-21T20:28:10.596Z,47.93
2019-01-21T20:30:39.869Z,43.38
2019-01-21T20:33:08.901Z,40.73
2019-01-21T20:35:37.845Z,41.88
2019-01-21T20:38:06.788Z,38.38
2019-01-21T20:40:36.490Z,40.23
2019-01-21T20:43:05.599Z,36.95
2019-01-21T20:45:34.653Z,40.75
2019-01-21T20:48:03.648Z,45.95
2019-01-21T20:50:33.319Z,43.80
2019-01-21T20:53:02.248Z,40.28
2019-01-21T20:55:31.404Z,42.17
2019-01-21T20:58:00.396Z,41.35
2019-01-21T21:00:30.472Z,37.95
2019-01-21T21:02:59.539Z,42.98
2019-01-21T21:05:28.516Z,49.95
2019-01-21T21:07:57.596Z,47.75
2019-01-21T21:10:26.593Z,48.90
2019-01-21T21:12:55.905Z,42.85
2019-01-21T21:15:27.810Z,39.98
2019-01-21T21:17:56.758Z,39.73
2019-01-21T21:20:25.682Z,39.40
2019-01-21T21:22:54.716Z,41.25
2019-01-21T21:25:24.491Z,37.70
2019-01-21T21:27:53.538Z,39.42
2019-01-21T21:30:25.336Z,40.95
2019-01-21T21:32:54.347Z,35.45
2019-01-21T21:35:23.872Z,36.68
2019-01-21T21:37:52.841Z,38.30
2019-01-21T21:40:21.962Z,37.60
2019-01-21T21:42:51.635Z,31.60
2019-01-21T21:45:20.927Z,41.60
2019-01-21T21:47:50.486Z,37.95
2019-01-21T21:50:24.814Z,37.03
2019-01-21T21:52:53.739Z,37.78
2019-01-21T21:55:23.136Z,38.58
2019-01-21T21:57:52.113Z,39.25
2019-01-21T22:00:23.152Z,37.13
2019-01-21T22:02:52.144Z,37.03
2019-01-21T22:05:21.426Z,40.05
2019-01-21T22:07:50.760Z,38.98
2019-01-21T22:10:21.690Z,42.38
2019-01-21T22:12:51.380Z,36.10
2019-01-21T22:15:21.776Z,38.55
2019-01-21T22:17:50.629Z,41.75
2019-01-21T22:20:21.787Z,38.60
2019-01-21T22:22:50.656Z,48.00
2019-01-21T22:25:19.920Z,40.65
2019-01-21T22:27:49.204Z,41.85
2019-01-21T22:30:26.223Z,39.65
2019-01-21T22:32:55.188Z,36.53
2019-01-21T22:35:24.096Z,39.30
2019-01-21T22:37:52.950Z,37.65
2019-01-21T22:40:23.045Z,38.58
2019-01-21T22:42:52.002Z,35.25
2019-01-21T22:45:22.038Z,39.20
2019-01-21T22:47:51.028Z,40.05
2019-01-21T22:50:20.844Z,39.15
2019-01-21T22:52:49.820Z,39.50
2019-01-21T22:55:18.868Z,36.13
2019-01-21T22:57:47.918Z,35.65
2019-01-21T23:00:30.917Z,37.60
2019-01-21T23:02:59.939Z,37.23
2019-01-21T23:05:28.952Z,37.42
2019-01-21T23:07:57.864Z,34.80
2019-01-21T23:10:26.747Z,33.13
2019-01-21T23:12:56.252Z,36.75
2019-01-21T23:15:25.452Z,34.00
2019-01-21T23:17:54.256Z,37.10
2019-01-21T23:20:23.244Z,35.92
2019-01-21T23:22:52.255Z,35.65
2019-01-21T23:25:21.905Z,35.10
2019-01-21T23:27:50.951Z,36.30
2019-01-21T23:30:20.692Z,34.80
2019-01-21T23:32:49.572Z,38.10
2019-01-21T23:35:18.552Z,35.17
2019-01-21T23:37:47.448Z,37.25
2019-01-21T23:40:16.600Z,35.38
2019-01-21T23:42:45.486Z,33.73
2019-01-21T23:45:14.804Z,38.00
2019-01-21T23:47:43.728Z,35.20
2019-01-21T23:50:13.178Z,34.30
2019-01-21T23:52:42.638Z,36.85
2019-01-21T23:55:12.164Z,33.33
2019-01-21T23:57:41.181Z,40.65
